sensor_id;sensor_type;location;lat;lon;timestamp;P1;durP1;ratioP1;P2;durP2;ratioP2
11964;SDS011;6042;41.326;19.826;2023-08-21T00:00:05;5.65;;;4.25;;
11964;SDS011;6042;41.326;19.826;2023-08-21T00:02:36;7.38;;;4.18;;
11964;SDS011;6042;41.326;19.826;2023-08-21T00:05:06;5.53;;;3.83;;
11964;SDS011;6042;41.326;19.826;2023-08-21T00:07:35;5.00;;;3.97;;
11964;SDS011;6042;41.326;19.826;2023-08-21T00:10:04;8.30;;;4.25;;
11964;SDS011;6042;41.326;19.826;2023-08-21T00:12:34;5.30;;;3.63;;
11964;SDS011;6042;41.326;19.826;2023-08-21T00:15:03;6.07;;;3.88;;
11964;SDS011;6042;41.326;19.826;2023-08-21T00:17:33;5.15;;;4.10;;
11964;SDS011;6042;41.326;19.826;2023-08-21T00:20:02;6.22;;;3.80;;
11964;SDS011;6042;41.326;19.826;2023-08-21T00:22:30;6.63;;;3.70;;
11964;SDS011;6042;41.326;19.826;2023-08-21T00:24:59;4.10;;;3.40;;
11964;SDS011;6042;41.326;19.826;2023-08-21T00:27:27;4.20;;;3.50;;
11964;SDS011;6042;41.326;19.826;2023-08-21T00:29:56;4.55;;;3.50;;
11964;SDS011;6042;41.326;19.826;2023-08-21T00:32:25;4.85;;;3.60;;
11964;SDS011;6042;41.326;19.826;2023-08-21T00:34:54;6.80;;;3.60;;
11964;SDS011;6042;41.326;19.826;2023-08-21T00:37:23;4.38;;;3.97;;
11964;SDS011;6042;41.326;19.826;2023-08-21T00:39:52;5.80;;;3.40;;
11964;SDS011;6042;41.326;19.826;2023-08-21T00:42:20;5.07;;;3.60;;
11964;SDS011;6042;41.326;19.826;2023-08-21T00:44:49;4.85;;;3.35;;
11964;SDS011;6042;41.326;19.826;2023-08-21T00:47:17;5.82;;;3.70;;
11964;SDS011;6042;41.326;19.826;2023-08-21T00:49:47;5.30;;;3.80;;
11964;SDS011;6042;41.326;19.826;2023-08-21T00:52:17;4.38;;;3.63;;
11964;SDS011;6042;41.326;19.826;2023-08-21T00:54:45;6.28;;;3.70;;
11964;SDS011;6042;41.326;19.826;2023-08-21T00:57:14;4.38;;;3.42;;
11964;SDS011;6042;41.326;19.826;2023-08-21T00:59:42;4.38;;;3.97;;
11964;SDS011;6042;41.326;19.826;2023-08-21T01:02:11;5.78;;;3.50;;
11964;SDS011;6042;41.326;19.826;2023-08-21T01:04:40;4.82;;;3.83;;
11964;SDS011;6042;41.326;19.826;2023-08-21T01:07:09;4.25;;;3.70;;
11964;SDS011;6042;41.326;19.826;2023-08-21T01:09:42;3.90;;;3.50;;
11964;SDS011;6042;41.326;19.826;2023-08-21T01:12:14;4.95;;;3.90;;
11964;SDS011;6042;41.326;19.826;2023-08-21T01:14:53;5.65;;;3.55;;
11964;SDS011;6042;41.326;19.826;2023-08-21T01:17:26;4.88;;;3.70;;
11964;SDS011;6042;41.326;19.826;2023-08-21T01:19:57;4.72;;;3.53;;
11964;SDS011;6042;41.326;19.826;2023-08-21T01:22:27;4.05;;;3.03;;
11964;SDS011;6042;41.326;19.826;2023-08-21T01:25:05;4.70;;;3.83;;
11964;SDS011;6042;41.326;19.826;2023-08-21T01:27:36;6.35;;;3.55;;
11964;SDS011;6042;41.326;19.826;2023-08-21T01:30:08;5.40;;;3.70;;
11964;SDS011;6042;41.326;19.826;2023-08-21T01:32:40;4.15;;;3.53;;
11964;SDS011;6042;41.326;19.826;2023-08-21T01:35:13;4.35;;;3.95;;
11964;SDS011;6042;41.326;19.826;2023-08-21T01:37:42;4.07;;;3.58;;
11964;SDS011;6042;41.326;19.826;2023-08-21T01:40:13;5.68;;;3.75;;
11964;SDS011;6042;41.326;19.826;2023-08-21T01:42:49;6.68;;;3.80;;
11964;SDS011;6042;41.326;19.826;2023-08-21T01:45:17;5.03;;;3.85;;
11964;SDS011;6042;41.326;19.826;2023-08-21T01:47:46;4.18;;;3.70;;
11964;SDS011;6042;41.326;19.826;2023-08-21T01:50:14;4.07;;;3.70;;
11964;SDS011;6042;41.326;19.826;2023-08-21T01:52:43;4.05;;;3.65;;
11964;SDS011;6042;41.326;19.826;2023-08-21T01:55:11;5.00;;;3.90;;
11964;SDS011;6042;41.326;19.826;2023-08-21T01:57:41;8.27;;;3.75;;
11964;SDS011;6042;41.326;19.826;2023-08-21T02:00:11;4.53;;;3.30;;
11964;SDS011;6042;41.326;19.826;2023-08-21T02:02:40;4.68;;;3.97;;
11964;SDS011;6042;41.326;19.826;2023-08-21T02:05:09;6.43;;;4.20;;
11964;SDS011;6042;41.326;19.826;2023-08-21T02:07:38;3.85;;;3.45;;
11964;SDS011;6042;41.326;19.826;2023-08-21T02:10:07;4.63;;;3.72;;
11964;SDS011;6042;41.326;19.826;2023-08-21T02:12:37;3.85;;;3.50;;
11964;SDS011;6042;41.326;19.826;2023-08-21T02:15:08;6.18;;;3.70;;
11964;SDS011;6042;41.326;19.826;2023-08-21T02:17:37;5.28;;;3.70;;
11964;SDS011;6042;41.326;19.826;2023-08-21T02:20:11;4.30;;;3.70;;
11964;SDS011;6042;41.326;19.826;2023-08-21T02:22:40;4.18;;;3.50;;
11964;SDS011;6042;41.326;19.826;2023-08-21T02:25:08;5.63;;;3.45;;
11964;SDS011;6042;41.326;19.826;2023-08-21T02:27:38;3.97;;;3.42;;
11964;SDS011;6042;41.326;19.826;2023-08-21T02:30:07;5.80;;;3.40;;
11964;SDS011;6042;41.326;19.826;2023-08-21T02:32:36;3.88;;;3.33;;
11964;SDS011;6042;41.326;19.826;2023-08-21T02:35:05;4.82;;;3.80;;
11964;SDS011;6042;41.326;19.826;2023-08-21T02:37:35;5.78;;;3.60;;
11964;SDS011;6042;41.326;19.826;2023-08-21T02:40:06;3.40;;;3.08;;
11964;SDS011;6042;41.326;19.826;2023-08-21T02:42:37;3.75;;;3.17;;
11964;SDS011;6042;41.326;19.826;2023-08-21T02:45:06;4.05;;;3.45;;
11964;SDS011;6042;41.326;19.826;2023-08-21T02:47:36;5.47;;;3.60;;
11964;SDS011;6042;41.326;19.826;2023-08-21T02:50:05;4.07;;;3.10;;
11964;SDS011;6042;41.326;19.826;2023-08-21T02:52:35;5.85;;;3.20;;
11964;SDS011;6042;41.326;19.826;2023-08-21T02:55:05;4.88;;;3.70;;
11964;SDS011;6042;41.326;19.826;2023-08-21T02:57:33;4.80;;;3.13;;
11964;SDS011;6042;41.326;19.826;2023-08-21T03:00:05;3.70;;;3.40;;
11964;SDS011;6042;41.326;19.826;2023-08-21T03:02:35;4.78;;;3.70;;
11964;SDS011;6042;41.326;19.826;2023-08-21T03:05:04;4.25;;;3.55;;
11964;SDS011;6042;41.326;19.826;2023-08-21T03:07:34;5.05;;;3.58;;
11964;SDS011;6042;41.326;19.826;2023-08-21T03:10:04;3.90;;;3.50;;
11964;SDS011;6042;41.326;19.826;2023-08-21T03:12:33;4.10;;;3.40;;
11964;SDS011;6042;41.326;19.826;2023-08-21T03:15:02;4.25;;;3.67;;
11964;SDS011;6042;41.326;19.826;2023-08-21T03:17:34;3.65;;;3.35;;
11964;SDS011;6042;41.326;19.826;2023-08-21T03:20:03;5.63;;;3.90;;
11964;SDS011;6042;41.326;19.826;2023-08-21T03:22:32;3.83;;;3.53;;
11964;SDS011;6042;41.326;19.826;2023-08-21T03:25:01;4.53;;;3.50;;
11964;SDS011;6042;41.326;19.826;2023-08-21T03:27:30;7.18;;;3.60;;
11964;SDS011;6042;41.326;19.826;2023-08-21T03:29:59;6.20;;;3.47;;
11964;SDS011;6042;41.326;19.826;2023-08-21T03:32:29;3.55;;;3.30;;
11964;SDS011;6042;41.326;19.826;2023-08-21T03:34:58;4.75;;;3.50;;
11964;SDS011;6042;41.326;19.826;2023-08-21T03:37:27;3.90;;;3.60;;
11964;SDS011;6042;41.326;19.826;2023-08-21T03:39:55;6.30;;;3.35;;
11964;SDS011;6042;41.326;19.826;2023-08-21T03:42:24;3.80;;;3.42;;
11964;SDS011;6042;41.326;19.826;2023-08-21T03:44:52;5.60;;;3.47;;
11964;SDS011;6042;41.326;19.826;2023-08-21T03:47:21;4.47;;;3.58;;
11964;SDS011;6042;41.326;19.826;2023-08-21T03:49:59;7.72;;;3.67;;
11964;SDS011;6042;41.326;19.826;2023-08-21T03:52:27;4.65;;;3.45;;
11964;SDS011;6042;41.326;19.826;2023-08-21T03:54:56;5.82;;;3.15;;
11964;SDS011;6042;41.326;19.826;2023-08-21T03:57:24;8.32;;;3.80;;
11964;SDS011;6042;41.326;19.826;2023-08-21T03:59:52;3.63;;;3.30;;
11964;SDS011;6042;41.326;19.826;2023-08-21T04:02:21;3.75;;;3.45;;
11964;SDS011;6042;41.326;19.826;2023-08-21T04:04:52;4.43;;;3.50;;
11964;SDS011;6042;41.326;19.826;2023-08-21T04:07:23;3.45;;;3.15;;
11964;SDS011;6042;41.326;19.826;2023-08-21T04:09:51;5.43;;;3.42;;
11964;SDS011;6042;41.326;19.826;2023-08-21T04:12:20;4.68;;;3.40;;
11964;SDS011;6042;41.326;19.826;2023-08-21T04:14:48;4.90;;;3.17;;
11964;SDS011;6042;41.326;19.826;2023-08-21T04:17:20;5.47;;;3.65;;
11964;SDS011;6042;41.326;19.826;2023-08-21T04:19:49;3.30;;;3.03;;
11964;SDS011;6042;41.326;19.826;2023-08-21T04:22:18;4.30;;;3.60;;
11964;SDS011;6042;41.326;19.826;2023-08-21T04:24:48;4.93;;;3.58;;
11964;SDS011;6042;41.326;19.826;2023-08-21T04:27:16;3.88;;;3.50;;
11964;SDS011;6042;41.326;19.826;2023-08-21T04:29:45;3.40;;;3.10;;
11964;SDS011;6042;41.326;19.826;2023-08-21T04:32:13;4.60;;;3.90;;
11964;SDS011;6042;41.326;19.826;2023-08-21T04:34:44;8.35;;;4.80;;
11964;SDS011;6042;41.326;19.826;2023-08-21T04:37:13;3.85;;;3.40;;
11964;SDS011;6042;41.326;19.826;2023-08-21T04:39:42;4.32;;;3.60;;
11964;SDS011;6042;41.326;19.826;2023-08-21T04:42:14;4.50;;;3.92;;
11964;SDS011;6042;41.326;19.826;2023-08-21T04:44:42;7.22;;;3.75;;
11964;SDS011;6042;41.326;19.826;2023-08-21T04:47:21;4.68;;;3.53;;
11964;SDS011;6042;41.326;19.826;2023-08-21T04:49:54;4.43;;;3.78;;
11964;SDS011;6042;41.326;19.826;2023-08-21T04:52:23;6.32;;;3.90;;
11964;SDS011;6042;41.326;19.826;2023-08-21T04:54:53;6.20;;;4.10;;
11964;SDS011;6042;41.326;19.826;2023-08-21T04:57:23;4.70;;;3.75;;
11964;SDS011;6042;41.326;19.826;2023-08-21T04:59:51;6.45;;;4.55;;
11964;SDS011;6042;41.326;19.826;2023-08-21T05:02:21;7.85;;;3.80;;
11964;SDS011;6042;41.326;19.826;2023-08-21T05:04:51;5.00;;;3.75;;
11964;SDS011;6042;41.326;19.826;2023-08-21T05:07:19;11.50;;;4.47;;
11964;SDS011;6042;41.326;19.826;2023-08-21T05:09:48;8.35;;;4.00;;
11964;SDS011;6042;41.326;19.826;2023-08-21T05:12:19;11.65;;;4.20;;
11964;SDS011;6042;41.326;19.826;2023-08-21T05:14:49;10.77;;;4.57;;
11964;SDS011;6042;41.326;19.826;2023-08-21T05:17:18;6.88;;;4.30;;
11964;SDS011;6042;41.326;19.826;2023-08-21T05:19:47;6.25;;;3.80;;
11964;SDS011;6042;41.326;19.826;2023-08-21T05:22:16;7.38;;;4.07;;
11964;SDS011;6042;41.326;19.826;2023-08-21T05:24:46;12.77;;;4.85;;
11964;SDS011;6042;41.326;19.826;2023-08-21T05:27:14;6.38;;;3.85;;
11964;SDS011;6042;41.326;19.826;2023-08-21T05:29:43;6.88;;;3.92;;
11964;SDS011;6042;41.326;19.826;2023-08-21T05:32:13;8.70;;;4.47;;
11964;SDS011;6042;41.326;19.826;2023-08-21T05:34:43;11.73;;;4.30;;
11964;SDS011;6042;41.326;19.826;2023-08-21T05:37:11;12.25;;;4.07;;
11964;SDS011;6042;41.326;19.826;2023-08-21T05:39:40;7.60;;;3.78;;
11964;SDS011;6042;41.326;19.826;2023-08-21T05:42:08;6.57;;;3.28;;
11964;SDS011;6042;41.326;19.826;2023-08-21T05:44:37;6.97;;;3.95;;
11964;SDS011;6042;41.326;19.826;2023-08-21T05:47:06;7.40;;;4.18;;
11964;SDS011;6042;41.326;19.826;2023-08-21T05:49:36;7.18;;;4.50;;
11964;SDS011;6042;41.326;19.826;2023-08-21T05:52:05;8.35;;;5.00;;
11964;SDS011;6042;41.326;19.826;2023-08-21T05:54:33;6.43;;;3.80;;
11964;SDS011;6042;41.326;19.826;2023-08-21T05:57:02;6.38;;;3.90;;
11964;SDS011;6042;41.326;19.826;2023-08-21T05:59:31;6.30;;;3.72;;
11964;SDS011;6042;41.326;19.826;2023-08-21T06:02:02;5.30;;;3.67;;
11964;SDS011;6042;41.326;19.826;2023-08-21T06:04:31;6.95;;;4.10;;
11964;SDS011;6042;41.326;19.826;2023-08-21T06:07:02;9.30;;;4.45;;
11964;SDS011;6042;41.326;19.826;2023-08-21T06:09:31;6.70;;;4.40;;
11964;SDS011;6042;41.326;19.826;2023-08-21T06:12:00;6.65;;;4.15;;
11964;SDS011;6042;41.326;19.826;2023-08-21T06:14:31;10.10;;;3.97;;
11964;SDS011;6042;41.326;19.826;2023-08-21T06:17:00;13.95;;;4.20;;
11964;SDS011;6042;41.326;19.826;2023-08-21T06:19:30;6.72;;;3.97;;
11964;SDS011;6042;41.326;19.826;2023-08-21T06:21:58;8.20;;;4.30;;
11964;SDS011;6042;41.326;19.826;2023-08-21T06:24:28;6.32;;;3.80;;
11964;SDS011;6042;41.326;19.826;2023-08-21T06:27:01;7.10;;;4.30;;
11964;SDS011;6042;41.326;19.826;2023-08-21T06:29:33;5.80;;;3.58;;
11964;SDS011;6042;41.326;19.826;2023-08-21T06:32:02;8.13;;;4.10;;
11964;SDS011;6042;41.326;19.826;2023-08-21T06:34:30;9.52;;;4.68;;
11964;SDS011;6042;41.326;19.826;2023-08-21T06:36:59;7.85;;;4.40;;
11964;SDS011;6042;41.326;19.826;2023-08-21T06:39:29;8.10;;;4.53;;
11964;SDS011;6042;41.326;19.826;2023-08-21T06:41:58;9.05;;;4.30;;
11964;SDS011;6042;41.326;19.826;2023-08-21T06:44:34;9.63;;;4.95;;
11964;SDS011;6042;41.326;19.826;2023-08-21T06:47:03;6.20;;;4.05;;
11964;SDS011;6042;41.326;19.826;2023-08-21T06:49:32;7.38;;;4.00;;
11964;SDS011;6042;41.326;19.826;2023-08-21T06:52:00;5.03;;;4.07;;
11964;SDS011;6042;41.326;19.826;2023-08-21T06:54:31;7.60;;;4.18;;
11964;SDS011;6042;41.326;19.826;2023-08-21T06:57:00;7.25;;;3.75;;
11964;SDS011;6042;41.326;19.826;2023-08-21T06:59:29;5.68;;;3.22;;
11964;SDS011;6042;41.326;19.826;2023-08-21T07:02:00;3.55;;;3.15;;
11964;SDS011;6042;41.326;19.826;2023-08-21T07:04:29;6.72;;;3.80;;
11964;SDS011;6042;41.326;19.826;2023-08-21T07:06:59;9.82;;;4.75;;
11964;SDS011;6042;41.326;19.826;2023-08-21T07:09:28;4.65;;;3.83;;
11964;SDS011;6042;41.326;19.826;2023-08-21T07:11:57;5.78;;;4.10;;
11964;SDS011;6042;41.326;19.826;2023-08-21T07:14:26;3.90;;;3.50;;
11964;SDS011;6042;41.326;19.826;2023-08-21T07:16:54;9.52;;;3.58;;
11964;SDS011;6042;41.326;19.826;2023-08-21T07:19:22;5.95;;;3.80;;
11964;SDS011;6042;41.326;19.826;2023-08-21T07:21:51;6.85;;;3.60;;
11964;SDS011;6042;41.326;19.826;2023-08-21T07:24:19;4.93;;;3.55;;
11964;SDS011;6042;41.326;19.826;2023-08-21T07:26:48;4.15;;;3.60;;
11964;SDS011;6042;41.326;19.826;2023-08-21T07:29:18;6.22;;;3.45;;
11964;SDS011;6042;41.326;19.826;2023-08-21T07:31:46;7.00;;;3.75;;
11964;SDS011;6042;41.326;19.826;2023-08-21T07:34:15;7.25;;;4.32;;
11964;SDS011;6042;41.326;19.826;2023-08-21T07:36:43;5.88;;;3.45;;
11964;SDS011;6042;41.326;19.826;2023-08-21T07:39:12;4.88;;;3.75;;
11964;SDS011;6042;41.326;19.826;2023-08-21T07:41:40;6.43;;;3.80;;
11964;SDS011;6042;41.326;19.826;2023-08-21T07:44:08;7.10;;;3.50;;
11964;SDS011;6042;41.326;19.826;2023-08-21T07:46:39;7.20;;;3.92;;
11964;SDS011;6042;41.326;19.826;2023-08-21T07:49:07;11.18;;;6.53;;
11964;SDS011;6042;41.326;19.826;2023-08-21T07:51:36;12.43;;;6.85;;
11964;SDS011;6042;41.326;19.826;2023-08-21T07:54:04;6.63;;;4.50;;
11964;SDS011;6042;41.326;19.826;2023-08-21T07:56:33;3.60;;;3.30;;
11964;SDS011;6042;41.326;19.826;2023-08-21T07:59:02;3.90;;;3.47;;
11964;SDS011;6042;41.326;19.826;2023-08-21T08:01:35;3.97;;;3.28;;
11964;SDS011;6042;41.326;19.826;2023-08-21T08:04:05;5.95;;;3.53;;
11964;SDS011;6042;41.326;19.826;2023-08-21T08:06:33;5.90;;;3.53;;
11964;SDS011;6042;41.326;19.826;2023-08-21T08:09:02;10.00;;;4.10;;
11964;SDS011;6042;41.326;19.826;2023-08-21T08:11:31;5.22;;;3.30;;
11964;SDS011;6042;41.326;19.826;2023-08-21T08:13:59;5.20;;;3.30;;
11964;SDS011;6042;41.326;19.826;2023-08-21T08:16:28;4.35;;;3.15;;
11964;SDS011;6042;41.326;19.826;2023-08-21T08:18:56;3.83;;;3.17;;
11964;SDS011;6042;41.326;19.826;2023-08-21T08:21:27;5.75;;;3.13;;
11964;SDS011;6042;41.326;19.826;2023-08-21T08:23:56;5.55;;;3.42;;
11964;SDS011;6042;41.326;19.826;2023-08-21T08:26:24;3.72;;;3.40;;
11964;SDS011;6042;41.326;19.826;2023-08-21T08:28:53;4.90;;;3.22;;
11964;SDS011;6042;41.326;19.826;2023-08-21T08:31:21;4.50;;;3.40;;
11964;SDS011;6042;41.326;19.826;2023-08-21T08:33:52;6.18;;;3.28;;
11964;SDS011;6042;41.326;19.826;2023-08-21T08:36:20;4.20;;;3.25;;
11964;SDS011;6042;41.326;19.826;2023-08-21T08:38:50;4.18;;;3.22;;
11964;SDS011;6042;41.326;19.826;2023-08-21T08:41:21;5.22;;;3.70;;
11964;SDS011;6042;41.326;19.826;2023-08-21T08:43:55;4.72;;;3.47;;
11964;SDS011;6042;41.326;19.826;2023-08-21T08:46:25;3.75;;;3.22;;
11964;SDS011;6042;41.326;19.826;2023-08-21T08:48:56;4.80;;;3.30;;
11964;SDS011;6042;41.326;19.826;2023-08-21T08:51:27;6.55;;;3.42;;
11964;SDS011;6042;41.326;19.826;2023-08-21T08:53:59;8.85;;;3.65;;
11964;SDS011;6042;41.326;19.826;2023-08-21T08:56:28;3.60;;;3.28;;
11964;SDS011;6042;41.326;19.826;2023-08-21T08:58:56;5.10;;;3.33;;
11964;SDS011;6042;41.326;19.826;2023-08-21T09:01:25;7.70;;;4.75;;
11964;SDS011;6042;41.326;19.826;2023-08-21T09:03:53;4.70;;;3.33;;
11964;SDS011;6042;41.326;19.826;2023-08-21T09:06:22;4.95;;;3.72;;
11964;SDS011;6042;41.326;19.826;2023-08-21T09:08:53;3.72;;;3.35;;
11964;SDS011;6042;41.326;19.826;2023-08-21T09:11:23;5.95;;;3.75;;
11964;SDS011;6042;41.326;19.826;2023-08-21T09:13:52;7.20;;;3.50;;
11964;SDS011;6042;41.326;19.826;2023-08-21T09:16:24;5.72;;;3.70;;
11964;SDS011;6042;41.326;19.826;2023-08-21T09:18:55;9.13;;;3.80;;
11964;SDS011;6042;41.326;19.826;2023-08-21T09:21:24;4.50;;;3.47;;
11964;SDS011;6042;41.326;19.826;2023-08-21T09:23:56;4.78;;;3.83;;
11964;SDS011;6042;41.326;19.826;2023-08-21T09:26:29;5.85;;;4.30;;
11964;SDS011;6042;41.326;19.826;2023-08-21T09:28:59;7.68;;;3.65;;
11964;SDS011;6042;41.326;19.826;2023-08-21T09:31:33;6.63;;;4.13;;
11964;SDS011;6042;41.326;19.826;2023-08-21T09:34:06;4.38;;;3.90;;
11964;SDS011;6042;41.326;19.826;2023-08-21T09:36:34;7.07;;;4.38;;
11964;SDS011;6042;41.326;19.826;2023-08-21T09:39:03;6.25;;;3.88;;
11964;SDS011;6042;41.326;19.826;2023-08-21T09:41:34;5.65;;;3.78;;
11964;SDS011;6042;41.326;19.826;2023-08-21T09:44:03;9.27;;;3.97;;
11964;SDS011;6042;41.326;19.826;2023-08-21T09:46:32;8.85;;;4.18;;
11964;SDS011;6042;41.326;19.826;2023-08-21T09:49:00;4.25;;;3.90;;
11964;SDS011;6042;41.326;19.826;2023-08-21T09:51:30;8.15;;;4.50;;
11964;SDS011;6042;41.326;19.826;2023-08-21T09:53:59;7.20;;;4.00;;
11964;SDS011;6042;41.326;19.826;2023-08-21T09:56:31;4.00;;;3.60;;
11964;SDS011;6042;41.326;19.826;2023-08-21T09:59:01;12.30;;;4.38;;
11964;SDS011;6042;41.326;19.826;2023-08-21T10:01:30;7.30;;;4.50;;
11964;SDS011;6042;41.326;19.826;2023-08-21T10:04:01;7.07;;;4.78;;
11964;SDS011;6042;41.326;19.826;2023-08-21T10:06:33;6.78;;;4.45;;
11964;SDS011;6042;41.326;19.826;2023-08-21T10:09:03;7.53;;;4.65;;
11964;SDS011;6042;41.326;19.826;2023-08-21T10:11:35;5.45;;;3.60;;
11964;SDS011;6042;41.326;19.826;2023-08-21T10:14:04;4.68;;;4.20;;
11964;SDS011;6042;41.326;19.826;2023-08-21T10:16:34;6.45;;;3.80;;
11964;SDS011;6042;41.326;19.826;2023-08-21T10:19:03;4.80;;;3.90;;
11964;SDS011;6042;41.326;19.826;2023-08-21T10:21:34;5.68;;;4.25;;
11964;SDS011;6042;41.326;19.826;2023-08-21T10:24:04;4.65;;;3.95;;
11964;SDS011;6042;41.326;19.826;2023-08-21T10:26:34;5.32;;;4.03;;
11964;SDS011;6042;41.326;19.826;2023-08-21T10:29:12;4.57;;;3.78;;
11964;SDS011;6042;41.326;19.826;2023-08-21T10:31:41;4.20;;;3.83;;
11964;SDS011;6042;41.326;19.826;2023-08-21T10:34:11;4.00;;;3.70;;
11964;SDS011;6042;41.326;19.826;2023-08-21T10:39:31;5.07;;;4.28;;
11964;SDS011;6042;41.326;19.826;2023-08-21T10:42:02;6.03;;;4.03;;
11964;SDS011;6042;41.326;19.826;2023-08-21T10:44:48;4.13;;;3.83;;
11964;SDS011;6042;41.326;19.826;2023-08-21T10:47:20;5.72;;;3.67;;
11964;SDS011;6042;41.326;19.826;2023-08-21T10:49:51;6.85;;;4.18;;
11964;SDS011;6042;41.326;19.826;2023-08-21T10:52:21;4.88;;;3.85;;
11964;SDS011;6042;41.326;19.826;2023-08-21T10:54:51;6.20;;;3.97;;
11964;SDS011;6042;41.326;19.826;2023-08-21T10:57:23;6.95;;;3.65;;
11964;SDS011;6042;41.326;19.826;2023-08-21T10:59:56;7.93;;;4.00;;
11964;SDS011;6042;41.326;19.826;2023-08-21T11:02:26;7.03;;;4.05;;
11964;SDS011;6042;41.326;19.826;2023-08-21T11:04:55;4.75;;;4.28;;
11964;SDS011;6042;41.326;19.826;2023-08-21T11:07:26;6.78;;;4.25;;
11964;SDS011;6042;41.326;19.826;2023-08-21T11:09:55;10.80;;;4.43;;
11964;SDS011;6042;41.326;19.826;2023-08-21T11:12:25;6.78;;;4.72;;
11964;SDS011;6042;41.326;19.826;2023-08-21T11:14:53;9.52;;;4.60;;
11964;SDS011;6042;41.326;19.826;2023-08-21T11:17:22;4.97;;;3.88;;
11964;SDS011;6042;41.326;19.826;2023-08-21T11:19:50;6.50;;;4.88;;
11964;SDS011;6042;41.326;19.826;2023-08-21T11:22:19;4.53;;;4.13;;
11964;SDS011;6042;41.326;19.826;2023-08-21T11:24:48;5.65;;;3.97;;
11964;SDS011;6042;41.326;19.826;2023-08-21T11:27:18;7.45;;;4.20;;
11964;SDS011;6042;41.326;19.826;2023-08-21T11:29:52;6.45;;;4.28;;
11964;SDS011;6042;41.326;19.826;2023-08-21T11:32:21;5.13;;;3.88;;
11964;SDS011;6042;41.326;19.826;2023-08-21T11:34:51;4.82;;;3.90;;
11964;SDS011;6042;41.326;19.826;2023-08-21T11:37:21;8.25;;;4.05;;
11964;SDS011;6042;41.326;19.826;2023-08-21T11:39:50;4.43;;;3.95;;
11964;SDS011;6042;41.326;19.826;2023-08-21T11:42:21;4.82;;;3.53;;
11964;SDS011;6042;41.326;19.826;2023-08-21T11:44:58;4.85;;;3.85;;
11964;SDS011;6042;41.326;19.826;2023-08-21T11:47:30;4.00;;;3.60;;
11964;SDS011;6042;41.326;19.826;2023-08-21T11:50:02;4.32;;;3.92;;
11964;SDS011;6042;41.326;19.826;2023-08-21T11:52:31;4.38;;;3.72;;
11964;SDS011;6042;41.326;19.826;2023-08-21T11:55:02;4.80;;;3.58;;
11964;SDS011;6042;41.326;19.826;2023-08-21T11:57:34;4.25;;;3.83;;
11964;SDS011;6042;41.326;19.826;2023-08-21T12:00:05;5.82;;;3.95;;
11964;SDS011;6042;41.326;19.826;2023-08-21T12:02:40;5.78;;;4.00;;
11964;SDS011;6042;41.326;19.826;2023-08-21T12:05:13;7.80;;;4.55;;
11964;SDS011;6042;41.326;19.826;2023-08-21T12:07:42;8.02;;;4.38;;
11964;SDS011;6042;41.326;19.826;2023-08-21T12:10:13;6.47;;;4.38;;
11964;SDS011;6042;41.326;19.826;2023-08-21T12:12:41;6.70;;;4.85;;
11964;SDS011;6042;41.326;19.826;2023-08-21T12:15:11;7.97;;;4.30;;
11964;SDS011;6042;41.326;19.826;2023-08-21T12:17:39;5.90;;;3.80;;
11964;SDS011;6042;41.326;19.826;2023-08-21T12:20:08;5.20;;;3.50;;
11964;SDS011;6042;41.326;19.826;2023-08-21T12:22:38;6.90;;;4.15;;
11964;SDS011;6042;41.326;19.826;2023-08-21T12:25:07;7.97;;;3.95;;
11964;SDS011;6042;41.326;19.826;2023-08-21T12:27:36;5.32;;;3.92;;
11964;SDS011;6042;41.326;19.826;2023-08-21T12:30:05;6.03;;;4.63;;
11964;SDS011;6042;41.326;19.826;2023-08-21T12:32:37;6.97;;;4.18;;
11964;SDS011;6042;41.326;19.826;2023-08-21T12:35:07;5.18;;;4.07;;
11964;SDS011;6042;41.326;19.826;2023-08-21T12:37:38;6.53;;;3.90;;
11964;SDS011;6042;41.326;19.826;2023-08-21T12:40:07;9.68;;;4.53;;
11964;SDS011;6042;41.326;19.826;2023-08-21T12:42:36;5.95;;;4.47;;
11964;SDS011;6042;41.326;19.826;2023-08-21T12:45:05;3.90;;;3.53;;
11964;SDS011;6042;41.326;19.826;2023-08-21T12:47:34;4.28;;;3.88;;
11964;SDS011;6042;41.326;19.826;2023-08-21T12:50:05;5.15;;;3.83;;
11964;SDS011;6042;41.326;19.826;2023-08-21T12:52:34;8.48;;;4.53;;
11964;SDS011;6042;41.326;19.826;2023-08-21T12:55:03;6.90;;;3.72;;
11964;SDS011;6042;41.326;19.826;2023-08-21T12:57:32;7.25;;;4.22;;
11964;SDS011;6042;41.326;19.826;2023-08-21T13:00:01;6.22;;;4.22;;
11964;SDS011;6042;41.326;19.826;2023-08-21T13:02:30;4.40;;;4.00;;
11964;SDS011;6042;41.326;19.826;2023-08-21T13:04:59;4.22;;;3.60;;
11964;SDS011;6042;41.326;19.826;2023-08-21T13:07:29;11.07;;;4.00;;
11964;SDS011;6042;41.326;19.826;2023-08-21T13:09:57;6.03;;;3.90;;
11964;SDS011;6042;41.326;19.826;2023-08-21T13:12:26;7.65;;;3.47;;
11964;SDS011;6042;41.326;19.826;2023-08-21T13:14:55;5.05;;;3.88;;
11964;SDS011;6042;41.326;19.826;2023-08-21T13:17:25;8.02;;;4.45;;
11964;SDS011;6042;41.326;19.826;2023-08-21T13:19:53;5.13;;;4.00;;
11964;SDS011;6042;41.326;19.826;2023-08-21T13:22:22;6.80;;;4.13;;
11964;SDS011;6042;41.326;19.826;2023-08-21T13:24:52;4.68;;;4.15;;
11964;SDS011;6042;41.326;19.826;2023-08-21T13:27:20;6.97;;;4.43;;
11964;SDS011;6042;41.326;19.826;2023-08-21T13:29:49;6.45;;;4.53;;
11964;SDS011;6042;41.326;19.826;2023-08-21T13:32:17;7.10;;;3.88;;
11964;SDS011;6042;41.326;19.826;2023-08-21T13:34:45;9.70;;;4.40;;
11964;SDS011;6042;41.326;19.826;2023-08-21T13:37:14;6.90;;;4.35;;
11964;SDS011;6042;41.326;19.826;2023-08-21T13:39:42;8.13;;;4.45;;
11964;SDS011;6042;41.326;19.826;2023-08-21T13:42:12;4.43;;;4.00;;
11964;SDS011;6042;41.326;19.826;2023-08-21T13:44:40;9.88;;;4.68;;
11964;SDS011;6042;41.326;19.826;2023-08-21T13:47:09;10.07;;;4.35;;
11964;SDS011;6042;41.326;19.826;2023-08-21T13:49:38;9.40;;;4.95;;
11964;SDS011;6042;41.326;19.826;2023-08-21T13:52:06;8.32;;;4.30;;
11964;SDS011;6042;41.326;19.826;2023-08-21T13:54:35;8.18;;;4.57;;
11964;SDS011;6042;41.326;19.826;2023-08-21T13:57:03;4.85;;;4.18;;
11964;SDS011;6042;41.326;19.826;2023-08-21T13:59:33;7.60;;;4.28;;
11964;SDS011;6042;41.326;19.826;2023-08-21T14:02:02;7.68;;;5.03;;
11964;SDS011;6042;41.326;19.826;2023-08-21T14:04:31;6.75;;;4.75;;
11964;SDS011;6042;41.326;19.826;2023-08-21T14:07:00;8.57;;;4.57;;
11964;SDS011;6042;41.326;19.826;2023-08-21T14:09:29;7.50;;;4.32;;
11964;SDS011;6042;41.326;19.826;2023-08-21T14:11:57;9.57;;;4.50;;
11964;SDS011;6042;41.326;19.826;2023-08-21T14:14:25;7.80;;;4.88;;
11964;SDS011;6042;41.326;19.826;2023-08-21T14:16:55;7.68;;;4.57;;
11964;SDS011;6042;41.326;19.826;2023-08-21T14:19:25;4.80;;;3.83;;
11964;SDS011;6042;41.326;19.826;2023-08-21T14:21:53;9.27;;;4.72;;
11964;SDS011;6042;41.326;19.826;2023-08-21T14:24:22;10.48;;;5.05;;
11964;SDS011;6042;41.326;19.826;2023-08-21T14:26:50;11.20;;;5.00;;
11964;SDS011;6042;41.326;19.826;2023-08-21T14:29:19;8.50;;;4.57;;
11964;SDS011;6042;41.326;19.826;2023-08-21T14:31:50;10.73;;;5.20;;
11964;SDS011;6042;41.326;19.826;2023-08-21T14:34:21;11.27;;;5.10;;
11964;SDS011;6042;41.326;19.826;2023-08-21T14:36:49;5.80;;;5.00;;
11964;SDS011;6042;41.326;19.826;2023-08-21T14:39:18;6.10;;;4.60;;
11964;SDS011;6042;41.326;19.826;2023-08-21T14:41:46;8.45;;;5.00;;
11964;SDS011;6042;41.326;19.826;2023-08-21T14:44:14;6.68;;;5.03;;
11964;SDS011;6042;41.326;19.826;2023-08-21T14:46:43;5.68;;;4.07;;
11964;SDS011;6042;41.326;19.826;2023-08-21T14:49:11;7.80;;;4.57;;
11964;SDS011;6042;41.326;19.826;2023-08-21T14:51:42;8.60;;;4.63;;
11964;SDS011;6042;41.326;19.826;2023-08-21T14:54:11;7.03;;;4.90;;
11964;SDS011;6042;41.326;19.826;2023-08-21T14:56:39;5.00;;;4.57;;
11964;SDS011;6042;41.326;19.826;2023-08-21T14:59:08;5.13;;;4.22;;
11964;SDS011;6042;41.326;19.826;2023-08-21T15:01:37;7.13;;;4.72;;
11964;SDS011;6042;41.326;19.826;2023-08-21T15:04:06;8.93;;;5.05;;